sensor_id;sensor_type;location;lat;lon;timestamp;pressure;altitude;pressure_sealevel;temperature;humidity
52625;BME280;38519;52.540;13.410;2023-02-18T00:00:21;100738.78;;;6.44;100.00
52625;BME280;38519;52.540;13.410;2023-02-18T00:02:48;100735.34;;;6.34;100.00
52625;BME280;38519;52.540;13.410;2023-02-18T00:05:13;100749.22;;;6.35;100.00
52625;BME280;38519;52.540;13.410;2023-02-18T00:07:39;100743.53;;;6.39;100.00
52625;BME280;38519;52.540;13.410;2023-02-18T00:10:05;100728.59;;;6.36;100.00
52625;BME280;38519;52.540;13.410;2023-02-18T00:12:31;100739.13;;;6.38;100.00
52625;BME280;38519;52.540;13.410;2023-02-18T00:14:56;100724.59;;;6.40;100.00
52625;BME280;38519;52.540;13.410;2023-02-18T00:17:22;100720.69;;;6.35;100.00
52625;BME280;38519;52.540;13.410;2023-02-18T00:19:47;100727.00;;;6.28;100.00
52625;BME280;38519;52.540;13.410;2023-02-18T00:22:13;100732.06;;;6.27;100.00
52625;BME280;38519;52.540;13.410;2023-02-18T00:24:38;100737.25;;;6.27;100.00
52625;BME280;38519;52.540;13.410;2023-02-18T00:27:03;100764.22;;;6.29;100.00
52625;BME280;38519;52.540;13.410;2023-02-18T00:29:28;100748.38;;;6.26;100.00
52625;BME280;38519;52.540;13.410;2023-02-18T00:31:54;100745.50;;;6.23;100.00
52625;BME280;38519;52.540;13.410;2023-02-18T00:34:19;100743.44;;;6.18;100.00
52625;BME280;38519;52.540;13.410;2023-02-18T00:36:44;100747.28;;;6.13;100.00
52625;BME280;38519;52.540;13.410;2023-02-18T00:39:10;100748.06;;;6.12;100.00
52625;BME280;38519;52.540;13.410;2023-02-18T00:41:36;100753.72;;;6.08;100.00
52625;BME280;38519;52.540;13.410;2023-02-18T00:44:01;100765.50;;;6.05;100.00
52625;BME280;38519;52.540;13.410;2023-02-18T00:46:28;100759.75;;;5.98;100.00
52625;BME280;38519;52.540;13.410;2023-02-18T00:48:53;100763.72;;;5.95;100.00
52625;BME280;38519;52.540;13.410;2023-02-18T00:51:19;100765.53;;;5.96;100.00
52625;BME280;38519;52.540;13.410;2023-02-18T00:53:44;100778.50;;;5.96;100.00
52625;BME280;38519;52.540;13.410;2023-02-18T00:56:12;100765.13;;;5.91;100.00
52625;BME280;38519;52.540;13.410;2023-02-18T00:58:38;100775.81;;;5.86;100.00
52625;BME280;38519;52.540;13.410;2023-02-18T01:01:04;100775.66;;;5.84;100.00
52625;BME280;38519;52.540;13.410;2023-02-18T01:03:30;100774.34;;;5.79;100.00
52625;BME280;38519;52.540;13.410;2023-02-18T01:05:55;100787.28;;;5.79;100.00
52625;BME280;38519;52.540;13.410;2023-02-18T01:08:21;100771.16;;;5.73;100.00
52625;BME280;38519;52.540;13.410;2023-02-18T01:10:47;100770.56;;;5.75;100.00
52625;BME280;38519;52.540;13.410;2023-02-18T01:13:13;100771.31;;;5.74;100.00
52625;BME280;38519;52.540;13.410;2023-02-18T01:15:38;100765.84;;;5.71;100.00
52625;BME280;38519;52.540;13.410;2023-02-18T01:18:04;100746.81;;;5.71;100.00
52625;BME280;38519;52.540;13.410;2023-02-18T01:20:29;100766.63;;;5.70;100.00
52625;BME280;38519;52.540;13.410;2023-02-18T01:22:55;100754.00;;;5.64;100.00
52625;BME280;38519;52.540;13.410;2023-02-18T01:25:22;100773.53;;;5.61;100.00
52625;BME280;38519;52.540;13.410;2023-02-18T01:27:47;100763.47;;;5.64;100.00
52625;BME280;38519;52.540;13.410;2023-02-18T01:30:14;100774.72;;;5.64;100.00
52625;BME280;38519;52.540;13.410;2023-02-18T01:32:40;100779.00;;;5.64;100.00
52625;BME280;38519;52.540;13.410;2023-02-18T01:35:06;100762.13;;;5.59;100.00
52625;BME280;38519;52.540;13.410;2023-02-18T01:37:31;100772.16;;;5.64;100.00
52625;BME280;38519;52.540;13.410;2023-02-18T01:39:57;100771.25;;;5.64;100.00
52625;BME280;38519;52.540;13.410;2023-02-18T01:42:25;100762.81;;;5.66;100.00
52625;BME280;38519;52.540;13.410;2023-02-18T01:44:50;100761.78;;;5.64;100.00
52625;BME280;38519;52.540;13.410;2023-02-18T01:47:16;100757.53;;;5.65;100.00
52625;BME280;38519;52.540;13.410;2023-02-18T01:49:41;100773.34;;;5.68;100.00
52625;BME280;38519;52.540;13.410;2023-02-18T01:52:10;100770.88;;;5.70;100.00
52625;BME280;38519;52.540;13.410;2023-02-18T01:54:39;100761.59;;;5.72;100.00
52625;BME280;38519;52.540;13.410;2023-02-18T01:57:06;100766.50;;;5.69;100.00
52625;BME280;38519;52.540;13.410;2023-02-18T01:59:35;100773.69;;;5.62;100.00
52625;BME280;38519;52.540;13.410;2023-02-18T02:02:01;100772.28;;;5.66;100.00
52625;BME280;38519;52.540;13.410;2023-02-18T02:04:26;100764.38;;;5.64;100.00
52625;BME280;38519;52.540;13.410;2023-02-18T02:06:51;100762.44;;;5.62;100.00
52625;BME280;38519;52.540;13.410;2023-02-18T02:09:18;100767.31;;;5.59;100.00
52625;BME280;38519;52.540;13.410;2023-02-18T02:19:10;100782.22;;;5.61;100.00
52625;BME280;38519;52.540;13.410;2023-02-18T02:29:56;100781.38;;;5.52;100.00
52625;BME280;38519;52.540;13.410;2023-02-18T02:32:39;100789.00;;;5.51;100.00
52625;BME280;38519;52.540;13.410;2023-02-18T02:35:10;100778.78;;;5.52;100.00
52625;BME280;38519;52.540;13.410;2023-02-18T02:40:21;100773.47;;;5.51;100.00
52625;BME280;38519;52.540;13.410;2023-02-18T02:50:25;100780.16;;;5.48;100.00
52625;BME280;38519;52.540;13.410;2023-02-18T02:52:54;100792.34;;;5.50;100.00
52625;BME280;38519;52.540;13.410;2023-02-18T02:55:21;100787.16;;;5.50;100.00
52625;BME280;38519;52.540;13.410;2023-02-18T02:57:50;100787.47;;;5.53;100.00
52625;BME280;38519;52.540;13.410;2023-02-18T03:00:17;100782.00;;;5.50;100.00
52625;BME280;38519;52.540;13.410;2023-02-18T03:03:20;100800.88;;;5.48;100.00
52625;BME280;38519;52.540;13.410;2023-02-18T03:05:43;100790.81;;;5.52;100.00
52625;BME280;38519;52.540;13.410;2023-02-18T03:18:39;100780.97;;;5.39;100.00
52625;BME280;38519;52.540;13.410;2023-02-18T03:21:14;100778.22;;;5.37;100.00
52625;BME280;38519;52.540;13.410;2023-02-18T03:23:45;100786.66;;;5.35;100.00
52625;BME280;38519;52.540;13.410;2023-02-18T03:26:13;100791.34;;;5.39;100.00
52625;BME280;38519;52.540;13.410;2023-02-18T03:28:41;100791.81;;;5.35;100.00
52625;BME280;38519;52.540;13.410;2023-02-18T03:31:09;100784.50;;;5.39;100.00
52625;BME280;38519;52.540;13.410;2023-02-18T03:33:39;100776.72;;;5.39;100.00
52625;BME280;38519;52.540;13.410;2023-02-18T03:36:07;100776.09;;;5.42;100.00
52625;BME280;38519;52.540;13.410;2023-02-18T03:38:41;100770.59;;;5.47;100.00
52625;BME280;38519;52.540;13.410;2023-02-18T03:41:08;100771.91;;;5.53;100.00
52625;BME280;38519;52.540;13.410;2023-02-18T03:43:36;100778.91;;;5.54;100.00
52625;BME280;38519;52.540;13.410;2023-02-18T03:46:01;100776.06;;;5.51;100.00
52625;BME280;38519;52.540;13.410;2023-02-18T03:48:27;100780.94;;;5.47;100.00
52625;BME280;38519;52.540;13.410;2023-02-18T03:50:52;100771.94;;;5.44;100.00
52625;BME280;38519;52.540;13.410;2023-02-18T03:53:18;100756.41;;;5.44;100.00
52625;BME280;38519;52.540;13.410;2023-02-18T03:55:43;100770.16;;;5.43;100.00
52625;BME280;38519;52.540;13.410;2023-02-18T03:58:09;100760.41;;;5.40;100.00
52625;BME280;38519;52.540;13.410;2023-02-18T04:00:34;100773.06;;;5.37;100.00
52625;BME280;38519;52.540;13.410;2023-02-18T04:02:59;100786.00;;;5.37;100.00
52625;BME280;38519;52.540;13.410;2023-02-18T04:05:24;100789.38;;;5.36;100.00
52625;BME280;38519;52.540;13.410;2023-02-18T04:07:50;100784.34;;;5.38;100.00
52625;BME280;38519;52.540;13.410;2023-02-18T04:10:15;100775.03;;;5.40;100.00
52625;BME280;38519;52.540;13.410;2023-02-18T04:12:40;100782.50;;;5.37;100.00
52625;BME280;38519;52.540;13.410;2023-02-18T04:15:06;100786.00;;;5.37;100.00
52625;BME280;38519;52.540;13.410;2023-02-18T04:17:32;100781.47;;;5.35;100.00
52625;BME280;38519;52.540;13.410;2023-02-18T04:19:57;100783.28;;;5.36;100.00
52625;BME280;38519;52.540;13.410;2023-02-18T04:22:22;100793.34;;;5.33;100.00
52625;BME280;38519;52.540;13.410;2023-02-18T04:24:48;100790.44;;;5.29;100.00
52625;BME280;38519;52.540;13.410;2023-02-18T04:27:13;100809.50;;;5.30;100.00
52625;BME280;38519;52.540;13.410;2023-02-18T04:29:38;100808.88;;;5.33;100.00
52625;BME280;38519;52.540;13.410;2023-02-18T04:32:03;100802.03;;;5.33;100.00
52625;BME280;38519;52.540;13.410;2023-02-18T04:34:30;100808.56;;;5.29;100.00
52625;BME280;38519;52.540;13.410;2023-02-18T04:36:55;100811.00;;;5.28;100.00
52625;BME280;38519;52.540;13.410;2023-02-18T04:39:21;100810.47;;;5.22;100.00
52625;BME280;38519;52.540;13.410;2023-02-18T04:41:46;100806.78;;;5.20;100.00
52625;BME280;38519;52.540;13.410;2023-02-18T04:44:12;100808.78;;;5.22;100.00
52625;BME280;38519;52.540;13.410;2023-02-18T04:46:37;100809.38;;;5.20;100.00
52625;BME280;38519;52.540;13.410;2023-02-18T04:49:02;100807.56;;;5.19;100.00
52625;BME280;38519;52.540;13.410;2023-02-18T04:51:27;100811.81;;;5.18;100.00
52625;BME280;38519;52.540;13.410;2023-02-18T04:53:53;100810.16;;;5.19;100.00
52625;BME280;38519;52.540;13.410;2023-02-18T04:56:18;100806.50;;;5.17;100.00
52625;BME280;38519;52.540;13.410;2023-02-18T04:58:44;100814.91;;;5.14;100.00
52625;BME280;38519;52.540;13.410;2023-02-18T05:01:09;100815.19;;;5.17;100.00
52625;BME280;38519;52.540;13.410;2023-02-18T05:03:35;100813.22;;;5.15;100.00
52625;BME280;38519;52.540;13.410;2023-02-18T05:06:00;100814.47;;;5.09;100.00
52625;BME280;38519;52.540;13.410;2023-02-18T05:08:26;100815.34;;;5.10;100.00
52625;BME280;38519;52.540;13.410;2023-02-18T05:10:51;100811.38;;;5.14;100.00
52625;BME280;38519;52.540;13.410;2023-02-18T05:13:16;100805.50;;;5.06;100.00
52625;BME280;38519;52.540;13.410;2023-02-18T05:15:42;100806.09;;;5.12;100.00
52625;BME280;38519;52.540;13.410;2023-02-18T05:18:07;100799.06;;;5.11;100.00
52625;BME280;38519;52.540;13.410;2023-02-18T05:20:33;100811.38;;;5.14;100.00
52625;BME280;38519;52.540;13.410;2023-02-18T05:23:00;100808.34;;;5.18;100.00
52625;BME280;38519;52.540;13.410;2023-02-18T05:25:25;100801.00;;;5.22;100.00
52625;BME280;38519;52.540;13.410;2023-02-18T05:27:50;100805.84;;;5.28;100.00
52625;BME280;38519;52.540;13.410;2023-02-18T05:30:16;100799.75;;;5.27;100.00
52625;BME280;38519;52.540;13.410;2023-02-18T05:32:42;100794.56;;;5.36;100.00
52625;BME280;38519;52.540;13.410;2023-02-18T05:35:07;100788.88;;;5.40;100.00
52625;BME280;38519;52.540;13.410;2023-02-18T05:37:33;100803.19;;;5.45;100.00
52625;BME280;38519;52.540;13.410;2023-02-18T05:39:58;100799.50;;;5.52;100.00
52625;BME280;38519;52.540;13.410;2023-02-18T05:42:24;100792.16;;;5.57;100.00
52625;BME280;38519;52.540;13.410;2023-02-18T05:44:50;100797.03;;;5.54;100.00
52625;BME280;38519;52.540;13.410;2023-02-18T05:47:16;100789.25;;;5.54;100.00
52625;BME280;38519;52.540;13.410;2023-02-18T05:49:45;100781.50;;;5.54;100.00
52625;BME280;38519;52.540;13.410;2023-02-18T05:52:11;100787.53;;;5.63;100.00
52625;BME280;38519;52.540;13.410;2023-02-18T05:54:36;100791.63;;;5.70;100.00
52625;BME280;38519;52.540;13.410;2023-02-18T05:57:02;100783.44;;;5.65;100.00
52625;BME280;38519;52.540;13.410;2023-02-18T05:59:28;100793.72;;;5.74;100.00
52625;BME280;38519;52.540;13.410;2023-02-18T06:01:53;100796.19;;;5.72;100.00
52625;BME280;38519;52.540;13.410;2023-02-18T06:04:19;100800.31;;;5.70;100.00
52625;BME280;38519;52.540;13.410;2023-02-18T06:06:45;100790.53;;;5.76;100.00
52625;BME280;38519;52.540;13.410;2023-02-18T06:09:10;100798.44;;;5.78;100.00
52625;BME280;38519;52.540;13.410;2023-02-18T06:11:36;100804.16;;;5.84;100.00
52625;BME280;38519;52.540;13.410;2023-02-18T06:14:01;100800.81;;;5.85;100.00
52625;BME280;38519;52.540;13.410;2023-02-18T06:16:27;100791.34;;;5.86;100.00
52625;BME280;38519;52.540;13.410;2023-02-18T06:18:52;100787.09;;;5.86;100.00
52625;BME280;38519;52.540;13.410;2023-02-18T06:21:17;100786.59;;;5.90;100.00
52625;BME280;38519;52.540;13.410;2023-02-18T06:23:43;100797.75;;;5.89;100.00
52625;BME280;38519;52.540;13.410;2023-02-18T06:26:08;100788.44;;;5.91;100.00
52625;BME280;38519;52.540;13.410;2023-02-18T06:28:33;100796.97;;;5.99;100.00
52625;BME280;38519;52.540;13.410;2023-02-18T06:30:58;100807.34;;;5.99;100.00
52625;BME280;38519;52.540;13.410;2023-02-18T06:33:24;100799.09;;;5.94;100.00
52625;BME280;38519;52.540;13.410;2023-02-18T06:35:59;100799.97;;;6.04;100.00
52625;BME280;38519;52.540;13.410;2023-02-18T06:38:25;100780.28;;;6.06;100.00
52625;BME280;38519;52.540;13.410;2023-02-18T06:40:51;100784.56;;;6.05;100.00
52625;BME280;38519;52.540;13.410;2023-02-18T06:43:16;100779.50;;;6.07;100.00
52625;BME280;38519;52.540;13.410;2023-02-18T06:45:43;100791.97;;;6.11;100.00
52625;BME280;38519;52.540;13.410;2023-02-18T06:48:08;100781.00;;;6.13;100.00
52625;BME280;38519;52.540;13.410;2023-02-18T06:50:33;100778.53;;;6.15;100.00
52625;BME280;38519;52.540;13.410;2023-02-18T06:52:59;100773.38;;;6.15;100.00
52625;BME280;38519;52.540;13.410;2023-02-18T06:55:24;100778.81;;;6.18;100.00
52625;BME280;38519;52.540;13.410;2023-02-18T06:57:49;100779.06;;;6.21;100.00
52625;BME280;38519;52.540;13.410;2023-02-18T07:00:14;100782.75;;;6.23;100.00
52625;BME280;38519;52.540;13.410;2023-02-18T07:02:40;100774.97;;;6.23;100.00
52625;BME280;38519;52.540;13.410;2023-02-18T07:05:05;100778.47;;;6.24;100.00
52625;BME280;38519;52.540;13.410;2023-02-18T07:07:30;100777.19;;;6.29;100.00
52625;BME280;38519;52.540;13.410;2023-02-18T07:09:56;100775.53;;;6.29;100.00
52625;BME280;38519;52.540;13.410;2023-02-18T07:12:21;100772.13;;;6.30;100.00
52625;BME280;38519;52.540;13.410;2023-02-18T07:14:46;100773.47;;;6.35;100.00
52625;BME280;38519;52.540;13.410;2023-02-18T07:17:11;100769.50;;;6.39;100.00
52625;BME280;38519;52.540;13.410;2023-02-18T07:19:37;100765.06;;;6.38;100.00
52625;BME280;38519;52.540;13.410;2023-02-18T07:22:02;100774.81;;;6.41;100.00
52625;BME280;38519;52.540;13.410;2023-02-18T07:24:27;100761.97;;;6.42;100.00
52625;BME280;38519;52.540;13.410;2023-02-18T07:26:53;100757.19;;;6.47;100.00
52625;BME280;38519;52.540;13.410;2023-02-18T07:29:18;100754.59;;;6.47;100.00
52625;BME280;38519;52.540;13.410;2023-02-18T07:31:43;100757.31;;;6.48;100.00
52625;BME280;38519;52.540;13.410;2023-02-18T07:34:09;100759.28;;;6.51;100.00
52625;BME280;38519;52.540;13.410;2023-02-18T07:36:34;100750.81;;;6.43;100.00
52625;BME280;38519;52.540;13.410;2023-02-18T07:38:59;100757.09;;;6.55;100.00
52625;BME280;38519;52.540;13.410;2023-02-18T07:41:24;100756.97;;;6.54;100.00
52625;BME280;38519;52.540;13.410;2023-02-18T07:43:50;100753.78;;;6.67;100.00
52625;BME280;38519;52.540;13.410;2023-02-18T07:46:15;100744.16;;;6.66;100.00
52625;BME280;38519;52.540;13.410;2023-02-18T07:48:40;100725.50;;;6.70;100.00
52625;BME280;38519;52.540;13.410;2023-02-18T07:51:07;100733.50;;;6.63;100.00
52625;BME280;38519;52.540;13.410;2023-02-18T07:53:33;100737.84;;;6.72;100.00
52625;BME280;38519;52.540;13.410;2023-02-18T07:55:58;100736.03;;;6.71;100.00
52625;BME280;38519;52.540;13.410;2023-02-18T07:58:25;100732.00;;;6.65;100.00
52625;BME280;38519;52.540;13.410;2023-02-18T08:00:51;100730.13;;;6.53;100.00
52625;BME280;38519;52.540;13.410;2023-02-18T08:03:21;100727.13;;;6.49;100.00
52625;BME280;38519;52.540;13.410;2023-02-18T08:05:47;100732.44;;;6.50;100.00
52625;BME280;38519;52.540;13.410;2023-02-18T08:08:14;100728.16;;;6.51;100.00
52625;BME280;38519;52.540;13.410;2023-02-18T08:10:39;100718.41;;;6.48;100.00
52625;BME280;38519;52.540;13.410;2023-02-18T08:13:05;100713.75;;;6.44;100.00
52625;BME280;38519;52.540;13.410;2023-02-18T08:15:30;100706.22;;;6.47;100.00
52625;BME280;38519;52.540;13.410;2023-02-18T08:17:55;100705.81;;;6.43;100.00
52625;BME280;38519;52.540;13.410;2023-02-18T08:20:21;100705.56;;;6.50;100.00
52625;BME280;38519;52.540;13.410;2023-02-18T08:22:46;100693.41;;;6.49;100.00
52625;BME280;38519;52.540;13.410;2023-02-18T08:25:11;100694.41;;;6.41;100.00
52625;BME280;38519;52.540;13.410;2023-02-18T08:27:36;100694.31;;;6.49;100.00
52625;BME280;38519;52.540;13.410;2023-02-18T08:30:02;100700.50;;;6.41;100.00
52625;BME280;38519;52.540;13.410;2023-02-18T08:32:27;100684.97;;;6.22;100.00
52625;BME280;38519;52.540;13.410;2023-02-18T08:34:53;100675.75;;;6.15;100.00
52625;BME280;38519;52.540;13.410;2023-02-18T08:37:18;100677.44;;;6.15;100.00
52625;BME280;38519;52.540;13.410;2023-02-18T08:39:44;100668.09;;;6.17;100.00
52625;BME280;38519;52.540;13.410;2023-02-18T08:42:09;100673.97;;;6.25;100.00
52625;BME280;38519;52.540;13.410;2023-02-18T08:44:34;100667.38;;;6.28;100.00
52625;BME280;38519;52.540;13.410;2023-02-18T08:46:59;100674.38;;;6.29;100.00
52625;BME280;38519;52.540;13.410;2023-02-18T08:49:25;100673.84;;;6.23;100.00
52625;BME280;38519;52.540;13.410;2023-02-18T08:51:54;100664.47;;;6.15;100.00
52625;BME280;38519;52.540;13.410;2023-02-18T08:54:19;100670.00;;;6.09;100.00
52625;BME280;38519;52.540;13.410;2023-02-18T08:56:45;100666.00;;;6.13;100.00
52625;BME280;38519;52.540;13.410;2023-02-18T08:59:10;100658.88;;;6.10;100.00
52625;BME280;38519;52.540;13.410;2023-02-18T09:01:35;100660.94;;;5.95;100.00
52625;BME280;38519;52.540;13.410;2023-02-18T09:04:01;100656.41;;;5.93;100.00
52625;BME280;38519;52.540;13.410;2023-02-18T09:06:27;100655.03;;;5.96;100.00
52625;BME280;38519;52.540;13.410;2023-02-18T09:08:53;100658.19;;;6.03;100.00
52625;BME280;38519;52.540;13.410;2023-02-18T09:11:18;100651.56;;;6.06;100.00
52625;BME280;38519;52.540;13.410;2023-02-18T09:13:43;100639.13;;;6.02;100.00
52625;BME280;38519;52.540;13.410;2023-02-18T09:16:12;100632.53;;;6.06;100.00
52625;BME280;38519;52.540;13.410;2023-02-18T09:18:38;100629.84;;;6.14;100.00
52625;BME280;38519;52.540;13.410;2023-02-18T09:21:05;100629.56;;;6.11;100.00
52625;BME280;38519;52.540;13.410;2023-02-18T09:23:31;100611.28;;;6.10;100.00
52625;BME280;38519;52.540;13.410;2023-02-18T09:25:56;100623.06;;;6.06;100.00
52625;BME280;38519;52.540;13.410;2023-02-18T09:28:22;100611.41;;;6.11;100.00
52625;BME280;38519;52.540;13.410;2023-02-18T09:30:47;100609.69;;;6.01;100.00
52625;BME280;38519;52.540;13.410;2023-02-18T09:33:12;100625.16;;;6.10;100.00
52625;BME280;38519;52.540;13.410;2023-02-18T09:35:42;100613.25;;;6.12;100.00
52625;BME280;38519;52.540;13.410;2023-02-18T09:38:08;100599.38;;;6.12;100.00
52625;BME280;38519;52.540;13.410;2023-02-18T09:40:34;100606.78;;;6.17;100.00
52625;BME280;38519;52.540;13.410;2023-02-18T09:43:01;100597.41;;;6.09;100.00
52625;BME280;38519;52.540;13.410;2023-02-18T09:45:27;100571.50;;;6.09;100.00
52625;BME280;38519;52.540;13.410;2023-02-18T09:47:52;100575.16;;;6.22;100.00
52625;BME280;38519;52.540;13.410;2023-02-18T09:50:22;100573.88;;;6.16;100.00
52625;BME280;38519;52.540;13.410;2023-02-18T09:52:48;100555.97;;;6.19;100.00
52625;BME280;38519;52.540;13.410;2023-02-18T09:55:14;100544.19;;;6.23;100.00
52625;BME280;38519;52.540;13.410;2023-02-18T09:57:42;100542.13;;;6.29;100.00
52625;BME280;38519;52.540;13.410;2023-02-18T10:00:14;100542.00;;;6.28;100.00
52625;BME280;38519;52.540;13.410;2023-02-18T10:02:56;100539.91;;;6.24;100.00
52625;BME280;38519;52.540;13.410;2023-02-18T10:05:24;100526.53;;;6.09;100.00
52625;BME280;38519;52.540;13.410;2023-02-18T10:07:51;100527.94;;;6.05;100.00
52625;BME280;38519;52.540;13.410;2023-02-18T10:10:20;100517.47;;;6.14;100.00
52625;BME280;38519;52.540;13.410;2023-02-18T10:12:47;100519.78;;;6.11;100.00
52625;BME280;38519;52.540;13.410;2023-02-18T10:15:16;100521.97;;;6.06;100.00
52625;BME280;38519;52.540;13.410;2023-02-18T10:17:44;100516.25;;;6.00;100.00
52625;BME280;38519;52.540;13.410;2023-02-18T10:20:10;100505.19;;;5.92;100.00
52625;BME280;38519;52.540;13.410;2023-02-18T10:22:40;100496.44;;;6.00;100.00
52625;BME280;38519;52.540;13.410;2023-02-18T10:25:06;100492.28;;;6.03;100.00
52625;BME280;38519;52.540;13.410;2023-02-18T10:27:33;100477.72;;;5.94;100.00
52625;BME280;38519;52.540;13.410;2023-02-18T10:32:41;100451.72;;;6.03;100.00
52625;BME280;38519;52.540;13.410;2023-02-18T10:40:31;100422.19;;;6.22;100.00
52625;BME280;38519;52.540;13.410;2023-02-18T10:43:04;100413.63;;;6.23;100.00
52625;BME280;38519;52.540;13.410;2023-02-18T10:48:31;100401.72;;;6.25;100.00
52625;BME280;38519;52.540;13.410;2023-02-18T10:51:01;100386.28;;;6.26;100.00
52625;BME280;38519;52.540;13.410;2023-02-18T10:53:33;100387.97;;;6.26;100.00
52625;BME280;38519;52.540;13.410;2023-02-18T10:55:59;100374.09;;;6.15;100.00
52625;BME280;38519;52.540;13.410;2023-02-18T10:58:32;100373.31;;;6.06;100.00
52625;BME280;38519;52.540;13.410;2023-02-18T11:01:05;100366.56;;;6.08;100.00
52625;BME280;38519;52.540;13.410;2023-02-18T11:03:51;100352.84;;;6.09;100.00
52625;BME280;38519;52.540;13.410;2023-02-18T11:08:54;100331.97;;;6.17;100.00
52625;BME280;38519;52.540;13.410;2023-02-18T11:11:24;100321.97;;;6.22;100.00
52625;BME280;38519;52.540;13.410;2023-02-18T11:13:54;100308.13;;;6.22;100.00
52625;BME280;38519;52.540;13.410;2023-02-18T11:16:20;100306.19;;;6.29;100.00
52625;BME280;38519;52.540;13.410;2023-02-18T11:18:46;100290.47;;;6.38;100.00
52625;BME280;38519;52.540;13.410;2023-02-18T11:23:47;100284.50;;;6.39;100.00
52625;BME280;38519;52.540;13.410;2023-02-18T11:26:14;100264.00;;;6.32;100.00
52625;BME280;38519;52.540;13.410;2023-02-18T11:28:54;100278.00;;;6.34;100.00
52625;BME280;38519;52.540;13.410;2023-02-18T11:31:25;100267.41;;;6.31;100.00
52625;BME280;38519;52.540;13.410;2023-02-18T11:33:57;100256.53;;;6.14;100.00
52625;BME280;38519;52.540;13.410;2023-02-18T11:36:24;100256.78;;;6.17;100.00
52625;BME280;38519;52.540;13.410;2023-02-18T11:38:55;100244.75;;;6.18;100.00
52625;BME280;38519;52.540;13.410;2023-02-18T11:41:28;100225.94;;;6.20;100.00
52625;BME280;38519;52.540;13.410;2023-02-18T11:43:55;100225.94;;;6.20;100.00
52625;BME280;38519;52.540;13.410;2023-02-18T11:46:21;100220.59;;;6.29;100.00
52625;BME280;38519;52.540;13.410;2023-02-18T11:48:47;100198.81;;;6.37;100.00
52625;BME280;38519;52.540;13.410;2023-02-18T11:51:32;100209.56;;;6.32;100.00
52625;BME280;38519;52.540;13.410;2023-02-18T11:54:21;100208.38;;;6.38;100.00
52625;BME280;38519;52.540;13.410;2023-02-18T11:56:53;100182.28;;;6.47;100.00
52625;BME280;38519;52.540;13.410;2023-02-18T11:59:19;100183.84;;;6.45;100.00
52625;BME280;38519;52.540;13.410;2023-02-18T12:02:15;100179.25;;;6.63;100.00
52625;BME280;38519;52.540;13.410;2023-02-18T12:04:33;100148.75;;;6.61;100.00
52625;BME280;38519;52.540;13.410;2023-02-18T12:12:05;100142.13;;;6.86;100.00
52625;BME280;38519;52.540;13.410;2023-02-18T12:14:33;100133.78;;;6.90;100.00
52625;BME280;38519;52.540;13.410;2023-02-18T12:19:57;100130.28;;;6.90;100.00
52625;BME280;38519;52.540;13.410;2023-02-18T12:45:59;100090.38;;;7.93;100.00
52625;BME280;38519;52.540;13.410;2023-02-18T12:53:56;100069.41;;;8.38;100.00
52625;BME280;38519;52.540;13.410;2023-02-18T12:56:50;100069.06;;;8.46;100.00
52625;BME280;38519;52.540;13.410;2023-02-18T13:07:35;100060.69;;;9.00;100.00
52625;BME280;38519;52.540;13.410;2023-02-18T13:10:19;100045.00;;;9.12;100.00
52625;BME280;38519;52.540;13.410;2023-02-18T13:15:20;100031.53;;;9.31;100.00
52625;BME280;38519;52.540;13.410;2023-02-18T13:17:47;100033.50;;;9.35;100.00
52625;BME280;38519;52.540;13.410;2023-02-18T13:20:24;100029.69;;;9.30;100.00
52625;BME280;38519;52.540;13.410;2023-02-18T13:22:51;100018.50;;;9.31;100.00
52625;BME280;38519;52.540;13.410;2023-02-18T13:25:17;100014.47;;;9.36;100.00
52625;BME280;38519;52.540;13.410;2023-02-18T13:33:27;100040.59;;;9.24;100.00
52625;BME280;38519;52.540;13.410;2023-02-18T13:36:01;100037.00;;;9.22;100.00
52625;BME280;38519;52.540;13.410;2023-02-18T13:40:58;100042.72;;;9.30;100.00
52625;BME280;38519;52.540;13.410;2023-02-18T13:51:06;100014.78;;;9.41;100.00
52625;BME280;38519;52.540;13.410;2023-02-18T13:53:35;100010.47;;;9.41;100.00
52625;BME280;38519;52.540;13.410;2023-02-18T13:56:06;100012.38;;;9.44;100.00
52625;BME280;38519;52.540;13.410;2023-02-18T14:08:43;100008.19;;;9.33;100.00
52625;BME280;38519;52.540;13.410;2023-02-18T14:13:38;100003.97;;;9.35;100.00
52625;BME280;38519;52.540;13.410;2023-02-18T14:16:05;100016.09;;;9.34;100.00
52625;BME280;38519;52.540;13.410;2023-02-18T14:18:32;100007.34;;;9.34;100.00
52625;BME280;38519;52.540;13.410;2023-02-18T14:28:44;100022.19;;;9.35;100.00
52625;BME280;38519;52.540;13.410;2023-02-18T14:33:39;100004.94;;;9.37;100.00
52625;BME280;38519;52.540;13.410;2023-02-18T14:38:52;100018.19;;;9.40;100.00
52625;BME280;38519;52.540;13.410;2023-02-18T14:49:07;100022.31;;;9.36;100.00
52625;BME280;38519;52.540;13.410;2023-02-18T14:51:35;100023.28;;;9.38;100.00
52625;BME280;38519;52.540;13.410;2023-02-18T14:54:04;100040.53;;;9.36;100.00
52625;BME280;38519;52.540;13.410;2023-02-18T14:56:30;100045.44;;;9.32;100.00
52625;BME280;38519;52.540;13.410;2023-02-18T14:58:58;100055.19;;;9.34;100.00
52625;BME280;38519;52.540;13.410;2023-02-18T15:01:29;100050.84;;;9.35;100.00
52625;BME280;38519;52.540;13.410;2023-02-18T15:03:55;100047.16;;;9.31;100.00
52625;BME280;38519;52.540;13.410;2023-02-18T15:06:30;100030.38;;;9.27;100.00
52625;BME280;38519;52.540;13.410;2023-02-18T15:09:00;100036.91;;;9.21;100.00